Time;durP1;ratioP1;P1;durP2;ratioP2;P2;SDS_P1;SDS_P2;PMS_P1;PMS_P2;Temp;Humidity;BMP_temperature;BMP_pressure;BME280_temperature;BME280_humidity;BME280_pressure;Samples;Min_cycle;Max_cycle;Signal;HPM_P1;HPM_P2
2023/01/15 00:00:30;;;;;;;18.60;3.33;;;;;;;7.10;54.98;95458.38;5026115;28;20060;-80
2023/01/15 00:02:56;;;;;;;10.75;3.20;;;;;;;7.11;54.58;95451.88;5031831;28;20057;-80
2023/01/15 00:05:23;;;;;;;15.77;3.38;;;;;;;7.06;55.53;95450.91;5032062;28;20057;-83
2023/01/15 00:07:50;;;;;;;26.10;3.45;;;;;;;6.96;55.09;95450.44;5031661;28;20442;-85
2023/01/15 00:10:17;;;;;;;11.18;3.92;;;;;;;6.98;55.32;95431.94;5030792;28;20085;-82
2023/01/15 00:12:43;;;;;;;12.10;3.13;;;;;;;6.90;56.73;95430.06;5031358;28;20095;-82
2023/01/15 00:15:10;;;;;;;16.05;3.15;;;;;;;6.71;57.75;95419.50;5029325;28;20052;-84
2023/01/15 00:17:38;;;;;;;15.50;3.90;;;;;;;6.46;59.18;95419.13;5032152;28;20552;-83
2023/01/15 00:20:05;;;;;;;11.45;3.75;;;;;;;6.21;60.40;95417.13;5030835;28;20045;-82
2023/01/15 00:22:32;;;;;;;16.35;3.78;;;;;;;6.04;60.09;95414.38;5032335;28;20045;-82
2023/01/15 00:27:44;;;;;;;20.15;4.78;;;;;;;5.89;61.59;95412.84;5025828;28;20139;-80
2023/01/15 00:30:14;;;;;;;14.52;3.58;;;;;;;6.06;59.13;95406.78;5030544;28;20399;-85
2023/01/15 00:32:43;;;;;;;3.42;2.08;;;;;;;5.96;60.45;95395.13;5031175;28;20077;-83
2023/01/15 00:35:12;;;;;;;4.85;2.08;;;;;;;5.97;58.86;95391.31;5030444;28;20049;-83
2023/01/15 00:37:39;;;;;;;19.10;4.05;;;;;;;6.05;59.24;95383.53;5031147;28;20545;-82
2023/01/15 00:40:06;;;;;;;4.57;2.55;;;;;;;6.18;59.89;95377.22;5030475;28;20049;-84
2023/01/15 00:42:33;;;;;;;4.57;2.50;;;;;;;6.24;59.14;95381.38;5030519;28;20426;-79
2023/01/15 00:45:08;;;;;;;11.95;3.13;;;;;;;6.38;59.80;95381.25;5031498;28;20052;-79
2023/01/15 00:47:35;;;;;;;30.83;4.45;;;;;;;6.50;58.47;95379.53;5031093;28;20060;-83
2023/01/15 00:50:03;;;;;;;8.13;1.98;;;;;;;6.41;60.16;95381.41;5029403;28;20049;-88
2023/01/15 00:52:30;;;;;;;4.80;1.92;;;;;;;6.03;61.27;95374.94;5031358;28;20049;-83
2023/01/15 00:54:56;;;;;;;3.63;1.95;;;;;;;5.81;63.84;95384.69;5030802;28;20057;-81
2023/01/15 00:57:23;;;;;;;4.35;2.30;;;;;;;5.60;66.41;95372.81;5029759;28;20067;-85
2023/01/15 00:59:49;;;;;;;4.68;2.58;;;;;;;5.44;69.01;95370.53;5027372;28;20049;-89
2023/01/15 01:02:16;;;;;;;9.02;3.30;;;;;;;5.36;69.15;95383.97;5030487;28;20057;-83
2023/01/15 01:04:42;;;;;;;27.90;3.88;;;;;;;5.36;70.80;95386.66;5031139;28;20053;-83
2023/01/15 01:07:10;;;;;;;6.20;3.10;;;;;;;5.21;71.94;95382.44;5037824;28;20057;-80
2023/01/15 01:09:36;;;;;;;4.97;2.67;;;;;;;5.10;72.55;95387.28;5029529;28;20049;-80
2023/01/15 01:12:03;;;;;;;4.35;2.20;;;;;;;4.96;74.38;95389.25;5020505;28;20060;-82
2023/01/15 01:14:30;;;;;;;3.13;2.22;;;;;;;4.79;75.17;95381.78;5029888;28;20049;-85
2023/01/15 01:16:57;;;;;;;8.15;3.13;;;;;;;4.71;78.73;95374.44;5030075;28;20052;-82
2023/01/15 01:19:25;;;;;;;5.80;2.08;;;;;;;4.71;78.75;95375.22;5029388;28;20425;-79
2023/01/15 01:21:52;;;;;;;5.65;2.75;;;;;;;4.64;81.13;95384.81;5030074;28;20061;-80
2023/01/15 01:24:22;;;;;;;4.28;2.75;;;;;;;4.68;82.51;95372.34;5029789;28;20068;-83
2023/01/15 01:26:49;;;;;;;6.72;3.03;;;;;;;4.58;82.63;95372.56;5030688;28;20045;-80
2023/01/15 01:29:18;;;;;;;14.73;4.03;;;;;;;4.58;83.90;95376.06;5029712;28;20060;-81
2023/01/15 01:31:44;;;;;;;4.35;2.10;;;;;;;4.57;84.48;95362.88;5026792;28;20053;-80
2023/01/15 01:34:12;;;;;;;5.15;2.33;;;;;;;4.53;84.79;95369.97;5034133;28;20049;-86
2023/01/15 01:36:41;;;;;;;9.00;3.22;;;;;;;4.50;84.90;95357.13;5028414;28;20056;-79
2023/01/15 01:39:13;;;;;;;5.55;2.90;;;;;;;4.48;84.68;95351.22;5029202;28;20332;-82
2023/01/15 01:41:41;;;;;;;4.90;2.55;;;;;;;4.45;82.55;95345.34;5034509;28;20053;-87
2023/01/15 01:44:28;;;;;;;7.30;3.47;;;;;;;4.38;84.34;95344.16;5035240;28;20060;-88
2023/01/15 01:46:55;;;;;;;4.47;2.50;;;;;;;4.31;83.59;95339.19;5030050;28;20049;-86
2023/01/15 01:49:22;;;;;;;8.50;3.10;;;;;;;4.17;81.63;95333.00;5030061;28;20049;-87
2023/01/15 01:51:54;;;;;;;12.15;3.33;;;;;;;4.17;82.52;95333.00;5034455;28;20041;-86
2023/01/15 01:54:25;;;;;;;9.02;2.78;;;;;;;4.20;84.23;95316.25;5034874;28;20045;-87
2023/01/15 01:56:53;;;;;;;18.38;4.03;;;;;;;4.21;84.96;95327.81;5035070;28;20064;-88
2023/01/15 01:59:21;;;;;;;15.05;3.08;;;;;;;4.18;85.26;95313.88;5027684;28;20075;-84
2023/01/15 02:01:49;;;;;;;5.38;2.92;;;;;;;4.14;85.97;95312.88;5029438;28;20064;-87
2023/01/15 02:04:16;;;;;;;11.55;3.67;;;;;;;4.15;87.03;95309.06;5034863;28;20049;-84
2023/01/15 02:06:43;;;;;;;11.57;3.28;;;;;;;4.07;87.48;95295.50;5035708;28;20060;-88
2023/01/15 02:09:10;;;;;;;6.18;3.20;;;;;;;4.13;88.22;95294.31;5029273;28;20069;-88
2023/01/15 02:11:37;;;;;;;9.10;3.15;;;;;;;4.11;87.74;95283.03;5029176;28;20053;-84
2023/01/15 02:14:12;;;;;;;6.10;3.00;;;;;;;4.09;87.83;95274.47;5032490;28;20053;-91
2023/01/15 02:16:45;;;;;;;5.75;3.03;;;;;;;4.08;89.15;95264.78;5033354;28;20049;-90
2023/01/15 02:19:22;;;;;;;4.10;1.90;;;;;;;4.10;89.98;95258.00;5032497;28;20052;-90
2023/01/15 02:21:56;;;;;;;2.45;1.55;;;;;;;4.16;90.30;95246.00;5036333;28;20053;-88
2023/01/15 02:24:31;;;;;;;2.67;1.63;;;;;;;4.18;90.54;95248.41;5032087;28;20118;-83
2023/01/15 02:27:07;;;;;;;6.28;2.88;;;;;;;4.26;90.26;95239.59;5030890;28;20052;-82
2023/01/15 02:29:42;;;;;;;2.25;1.65;;;;;;;4.22;90.76;95238.59;5024913;28;20045;-85
2023/01/15 02:32:14;;;;;;;3.50;1.35;;;;;;;4.24;90.64;95225.63;5034635;28;20472;-89
2023/01/15 02:34:46;;;;;;;4.25;2.33;;;;;;;4.24;90.81;95212.16;5037190;28;20057;-88
2023/01/15 02:37:18;;;;;;;2.88;1.50;;;;;;;4.27;91.38;95216.91;5037775;28;20041;-85
2023/01/15 02:39:47;;;;;;;3.30;1.70;;;;;;;4.30;91.63;95212.84;5038117;28;20060;-87
2023/01/15 02:42:18;;;;;;;3.30;1.83;;;;;;;4.35;92.13;95210.00;5029824;28;20049;-81
2023/01/15 02:44:49;;;;;;;3.45;1.88;;;;;;;4.43;90.39;95196.56;5030697;28;20045;-82
2023/01/15 02:47:19;;;;;;;3.38;2.22;;;;;;;4.36;90.29;95198.13;5029468;28;20053;-84
2023/01/15 02:49:47;;;;;;;10.65;3.15;;;;;;;4.50;88.69;95192.69;5031969;28;20056;-80
2023/01/15 02:52:21;;;;;;;7.13;2.80;;;;;;;4.42;87.62;95204.97;5031019;28;20053;-84
2023/01/15 02:54:53;;;;;;;6.88;2.97;;;;;;;4.57;87.33;95206.50;5032967;28;20064;-88
2023/01/15 02:57:23;;;;;;;4.97;2.45;;;;;;;4.72;86.94;95198.03;5025910;28;20050;-83
2023/01/15 02:59:52;;;;;;;4.55;2.15;;;;;;;4.89;85.35;95195.44;5027682;28;20657;-82
2023/01/15 03:02:23;;;;;;;11.50;3.30;;;;;;;5.05;83.70;95203.13;5032174;28;20060;-86
2023/01/15 03:04:55;;;;;;;11.93;3.40;;;;;;;5.18;83.58;95192.25;5033277;28;20513;-86
2023/01/15 03:07:26;;;;;;;11.60;3.20;;;;;;;5.32;81.53;95194.81;5032013;28;20483;-83
2023/01/15 03:09:55;;;;;;;3.67;1.40;;;;;;;5.43;79.43;95190.75;5029181;28;20060;-87
2023/01/15 03:12:28;;;;;;;2.55;1.27;;;;;;;5.34;81.07;95195.31;5031506;28;20045;-83
2023/01/15 03:15:05;;;;;;;3.40;2.17;;;;;;;5.37;80.32;95189.28;5034753;28;20785;-82
2023/01/15 03:17:36;;;;;;;15.77;4.18;;;;;;;5.25;79.47;95183.69;5027670;28;20095;-86
2023/01/15 03:20:07;;;;;;;3.25;1.48;;;;;;;5.14;81.47;95177.78;5033566;28;20050;-88
2023/01/15 03:22:38;;;;;;;2.20;1.33;;;;;;;5.12;83.31;95184.59;5034796;28;20045;-85
2023/01/15 03:25:08;;;;;;;4.57;2.92;;;;;;;5.05;83.11;95178.84;5034578;28;20060;-87
2023/01/15 03:27:36;;;;;;;2.42;1.60;;;;;;;4.99;83.57;95170.09;5035783;28;20195;-87
2023/01/15 03:30:07;;;;;;;2.85;1.85;;;;;;;4.92;84.29;95175.16;5036583;28;20057;-90
2023/01/15 03:32:35;;;;;;;5.88;2.83;;;;;;;4.95;85.28;95159.13;5036297;28;20817;-89
2023/01/15 03:35:02;;;;;;;2.97;2.15;;;;;;;4.84;85.89;95157.81;5036190;28;20050;-89
2023/01/15 03:37:30;;;;;;;2.95;2.10;;;;;;;4.89;86.52;95160.38;5036783;28;20095;-83
2023/01/15 03:39:58;;;;;;;2.75;1.85;;;;;;;4.71;86.25;95167.59;5036492;28;20055;-87
2023/01/15 03:42:39;;;;;;;4.20;2.30;;;;;;;4.74;87.80;95158.06;5021801;28;20510;-85
2023/01/15 03:45:14;;;;;;;6.55;3.42;;;;;;;4.69;88.62;95155.50;5028239;28;20128;-88
2023/01/15 03:47:49;;;;;;;10.15;3.25;;;;;;;4.68;87.38;95164.69;5036455;28;20060;-86
2023/01/15 03:50:25;;;;;;;6.78;3.10;;;;;;;4.69;87.58;95160.91;5036820;28;20080;-86
2023/01/15 03:53:03;;;;;;;4.80;2.35;;;;;;;4.67;86.73;95163.13;5035715;28;20050;-90
2023/01/15 03:55:35;;;;;;;5.55;2.67;;;;;;;4.77;87.03;95141.28;5036210;28;20045;-86
2023/01/15 03:58:10;;;;;;;5.38;2.83;;;;;;;4.75;87.38;95139.97;5034977;28;20056;-86
2023/01/15 04:00:41;;;;;;;5.10;2.50;;;;;;;4.80;88.22;95132.56;5032859;28;20068;-84
2023/01/15 04:03:10;;;;;;;9.52;3.70;;;;;;;4.84;87.95;95127.34;5026224;28;20065;-89
2023/01/15 04:05:38;;;;;;;5.88;2.63;;;;;;;4.88;86.80;95123.72;5032593;28;20061;-84
2023/01/15 04:08:06;;;;;;;4.95;2.65;;;;;;;5.01;86.66;95129.31;5031131;28;20057;-88
2023/01/15 04:10:33;;;;;;;2.92;1.63;;;;;;;5.10;86.42;95130.94;5033384;28;20041;-90
2023/01/15 04:12:59;;;;;;;3.92;1.92;;;;;;;5.24;83.80;95138.91;5032191;28;20077;-82
2023/01/15 04:15:26;;;;;;;1.67;1.23;;;;;;;5.26;81.10;95131.28;5025957;28;20054;-87
2023/01/15 04:17:54;;;;;;;2.92;1.73;;;;;;;5.37;79.09;95137.19;5032644;28;20053;-85
2023/01/15 04:20:20;;;;;;;5.63;2.63;;;;;;;5.50;79.98;95126.25;5031930;28;20045;-88
2023/01/15 04:22:47;;;;;;;5.15;2.63;;;;;;;5.61;80.92;95131.38;5029488;28;20434;-86
2023/01/15 04:25:13;;;;;;;4.05;2.05;;;;;;;5.66;81.48;95134.72;5030664;28;20045;-86
2023/01/15 04:27:39;;;;;;;6.72;3.10;;;;;;;5.66;79.79;95131.22;5026579;28;20041;-86
2023/01/15 04:30:07;;;;;;;5.28;2.42;;;;;;;5.77;79.45;95127.09;5031546;28;20053;-83
2023/01/15 04:32:34;;;;;;;6.40;2.35;;;;;;;5.83;79.17;95128.50;5033381;28;20076;-87
2023/01/15 04:35:01;;;;;;;5.75;2.10;;;;;;;5.87;77.58;95124.06;5032580;28;20800;-88
2023/01/15 04:37:28;;;;;;;5.43;2.38;;;;;;;5.85;76.87;95117.41;5030815;28;20045;-84
2023/01/15 04:39:54;;;;;;;9.40;2.60;;;;;;;5.97;77.41;95117.59;5031919;28;20060;-88
2023/01/15 04:45:06;;;;;;;21.70;3.63;;;;;;;6.04;77.83;95122.50;5029153;28;20103;-84
2023/01/15 04:47:32;;;;;;;6.22;2.83;;;;;;;6.14;77.57;95106.75;5030858;28;20061;-85
2023/01/15 04:49:59;;;;;;;3.45;1.38;;;;;;;6.10;78.31;95110.41;5031972;28;20054;-85
2023/01/15 04:52:27;;;;;;;1.85;1.30;;;;;;;6.18;78.46;95112.34;5024777;28;20056;-84
2023/01/15 04:54:54;;;;;;;1.98;1.10;;;;;;;6.23;76.84;95110.25;5031803;28;20045;-88
2023/01/15 04:57:20;;;;;;;2.83;1.00;;;;;;;6.25;77.16;95096.41;5031040;28;20053;-83
2023/01/15 04:59:47;;;;;;;5.70;2.80;;;;;;;6.09;75.24;95103.44;5030862;28;20049;-86
2023/01/15 05:02:13;;;;;;;2.63;1.40;;;;;;;6.18;76.45;95096.13;5027680;28;20064;-88
2023/01/15 05:04:40;;;;;;;5.20;2.17;;;;;;;6.29;77.41;95086.56;5029965;28;20057;-88
2023/01/15 05:07:06;;;;;;;2.47;1.27;;;;;;;6.33;77.06;95082.09;5030640;28;20060;-88
2023/01/15 05:09:34;;;;;;;1.75;1.17;;;;;;;6.34;77.12;95080.97;5030843;28;20056;-87
2023/01/15 05:12:01;;;;;;;2.38;1.20;;;;;;;6.39;77.25;95075.41;5030901;28;20060;-84
2023/01/15 05:14:28;;;;;;;1.58;0.90;;;;;;;6.40;78.11;95085.09;5028694;28;20045;-87
2023/01/15 05:16:54;;;;;;;3.55;1.90;;;;;;;6.44;77.65;95080.63;5026444;28;20049;-84
2023/01/15 05:19:21;;;;;;;4.10;1.95;;;;;;;6.47;78.14;95082.69;5030587;28;20049;-87
2023/01/15 05:21:47;;;;;;;3.00;1.90;;;;;;;6.48;77.93;95089.69;5031318;28;20053;-86
2023/01/15 05:24:17;;;;;;;2.75;1.38;;;;;;;6.46;78.09;95075.69;5026522;28;20056;-86
2023/01/15 05:26:45;;;;;;;2.38;0.95;;;;;;;6.51;78.11;95080.13;5027625;28;20049;-89
2023/01/15 05:29:13;;;;;;;2.00;1.13;;;;;;;6.50;77.44;95090.16;5027801;28;20736;-88
2023/01/15 05:31:43;;;;;;;3.80;1.73;;;;;;;6.48;77.37;95084.28;5031264;28;20053;-89
2023/01/15 05:34:10;;;;;;;3.10;2.00;;;;;;;6.50;76.77;95083.94;5030852;28;20045;-86
2023/01/15 05:36:37;;;;;;;3.17;1.83;;;;;;;6.51;77.15;95086.31;5027966;28;20056;-89
2023/01/15 05:39:03;;;;;;;4.47;1.83;;;;;;;6.52;77.23;95106.88;5029272;28;20068;-88
2023/01/15 05:44:23;;;;;;;1.58;1.33;;;;;;;6.51;77.85;95099.84;5009247;28;20064;-87
2023/01/15 05:46:51;;;;;;;4.28;1.85;;;;;;;6.57;77.65;95096.97;5030421;28;20049;-88
2023/01/15 05:49:21;;;;;;;5.75;2.08;;;;;;;6.53;76.34;95094.94;5037965;28;20053;-88
2023/01/15 05:51:48;;;;;;;4.63;2.10;;;;;;;6.57;76.92;95086.16;5028981;28;20164;-88
2023/01/15 05:54:17;;;;;;;4.45;1.75;;;;;;;6.53;76.73;95097.63;5031092;28;20765;-85
2023/01/15 05:56:45;;;;;;;3.33;1.30;;;;;;;6.59;75.83;95094.75;5025817;28;20045;-86
2023/01/15 05:59:13;;;;;;;3.83;1.25;;;;;;;6.57;75.34;95086.16;5029402;28;20076;-89
2023/01/15 06:01:41;;;;;;;1.73;1.10;;;;;;;6.57;75.69;95084.25;5029446;28;20045;-88
2023/01/15 06:04:08;;;;;;;2.00;1.10;;;;;;;6.60;75.62;95080.09;5029024;28;20060;-88
2023/01/15 06:06:35;;;;;;;2.10;0.90;;;;;;;6.65;75.78;95066.41;5030426;28;20056;-84
2023/01/15 06:09:02;;;;;;;1.25;0.80;;;;;;;6.67;76.77;95064.16;5030644;28;20510;-88
2023/01/15 06:11:28;;;;;;;2.15;1.10;;;;;;;6.70;76.85;95068.94;5029991;28;20061;-84
2023/01/15 06:13:55;;;;;;;1.40;0.80;;;;;;;6.74;71.98;95064.47;5030888;28;20545;-85
2023/01/15 06:16:22;;;;;;;1.52;0.90;;;;;;;6.79;73.17;95062.38;5031165;28;20041;-89
2023/01/15 06:18:49;;;;;;;1.40;0.80;;;;;;;7.01;70.93;95077.56;5031724;28;20057;-83
2023/01/15 06:21:16;;;;;;;1.25;0.80;;;;;;;7.05;71.18;95080.41;5041868;28;20433;-85
2023/01/15 06:23:44;;;;;;;1.30;0.82;;;;;;;7.19;70.96;95090.97;5034402;28;20054;-88
2023/01/15 06:26:12;;;;;;;2.17;0.90;;;;;;;7.26;71.90;95086.66;5034052;28;20045;-88
2023/01/15 06:28:39;;;;;;;1.55;0.98;;;;;;;7.31;72.17;95088.38;5035845;28;20049;-83
2023/01/15 06:31:06;;;;;;;1.77;1.17;;;;;;;7.35;72.05;95089.28;5036686;28;20053;-87
2023/01/15 06:33:33;;;;;;;1.33;0.90;;;;;;;7.35;71.73;95088.50;5036616;28;20049;-86
2023/01/15 06:36:04;;;;;;;2.53;1.25;;;;;;;7.37;71.60;95087.06;5036564;28;20053;-85
2023/01/15 06:38:30;;;;;;;2.35;0.95;;;;;;;7.40;72.21;95086.41;5036857;28;20053;-87
2023/01/15 06:40:58;;;;;;;1.52;1.00;;;;;;;7.41;72.54;95087.97;5036436;28;20045;-84
2023/01/15 06:48:59;;;;;;;2.85;1.30;;;;;;;7.40;71.25;95086.41;5008257;28;20166;-86
2023/01/15 06:51:27;;;;;;;3.00;1.13;;;;;;;7.39;70.06;95090.22;5038881;28;20049;-89
2023/01/15 06:53:53;;;;;;;2.13;1.30;;;;;;;7.45;69.95;95088.91;5037724;28;20069;-86
2023/01/15 06:56:20;;;;;;;4.60;2.28;;;;;;;7.49;68.79;95078.22;5037218;28;20465;-89
2023/01/15 06:58:46;;;;;;;4.00;1.60;;;;;;;7.46;67.81;95079.66;5037018;28;20057;-88
2023/01/15 07:01:15;;;;;;;2.95;1.48;;;;;;;7.55;68.39;95075.00;5035743;28;20056;-88
2023/01/15 07:03:41;;;;;;;1.98;1.35;;;;;;;7.64;69.13;95079.56;5040208;28;20450;-86
2023/01/15 07:06:10;;;;;;;2.85;1.58;;;;;;;7.59;68.38;95078.63;5037386;28;20053;-84
2023/01/15 07:08:38;;;;;;;3.75;1.92;;;;;;;7.71;67.83;95079.81;5039205;28;20053;-85
2023/01/15 07:11:06;;;;;;;3.70;2.03;;;;;;;7.64;68.10;95076.84;5037456;28;20053;-89
2023/01/15 07:13:33;;;;;;;2.97;1.73;;;;;;;7.70;68.07;95078.25;5030694;28;20075;-85
2023/01/15 07:16:00;;;;;;;15.05;2.33;;;;;;;7.64;69.32;95074.16;5038831;28;20053;-89
2023/01/15 07:18:28;;;;;;;2.97;1.13;;;;;;;7.79;70.66;95065.41;5031361;28;20064;-86
2023/01/15 07:20:56;;;;;;;1.92;0.77;;;;;;;7.85;72.85;95072.22;5042051;28;20065;-85
2023/01/15 07:23:22;;;;;;;0.95;0.60;;;;;;;8.11;72.19;95064.66;5036538;28;20057;-87
2023/01/15 07:25:52;;;;;;;1.05;0.60;;;;;;;8.34;71.49;95058.84;5038133;28;20049;-87
2023/01/15 07:28:18;;;;;;;1.33;0.50;;;;;;;8.64;71.75;95059.50;5038033;28;20540;-85
2023/01/15 07:30:45;;;;;;;0.95;0.45;;;;;;;8.94;69.80;95054.69;5040470;28;20056;-82
2023/01/15 07:33:11;;;;;;;1.10;0.55;;;;;;;9.03;70.31;95055.38;5038575;28;20057;-87
2023/01/15 07:35:38;;;;;;;0.43;0.30;;;;;;;9.29;70.38;95056.91;5039462;28;20049;-87
2023/01/15 07:38:05;;;;;;;0.47;0.40;;;;;;;9.66;70.07;95047.59;5038355;28;20068;-86
2023/01/15 07:40:31;;;;;;;0.25;0.13;;;;;;;10.05;69.22;95047.91;5038004;28;20549;-87
2023/01/15 07:51:12;;;;;;;0.70;0.20;;;;;;;10.73;66.25;95059.84;5037037;28;20061;-86
2023/01/15 07:53:38;;;;;;;0.25;0.20;;;;;;;10.81;65.78;95064.34;5023049;28;20425;-89
2023/01/15 07:56:05;;;;;;;0.30;0.20;;;;;;;10.71;66.69;95069.16;5030866;28;20056;-89
2023/01/15 07:58:33;;;;;;;0.20;0.10;;;;;;;10.75;66.61;95060.28;5033947;28;20046;-89
2023/01/15 08:00:59;;;;;;;0.57;0.20;;;;;;;10.95;65.34;95072.84;5032701;28;20144;-88
2023/01/15 08:03:26;;;;;;;1.25;0.10;;;;;;;10.92;66.14;95068.13;5025205;28;20075;-88
2023/01/15 08:05:52;;;;;;;0.38;0.20;;;;;;;10.83;66.47;95060.13;5033380;28;20064;-89
2023/01/15 08:08:19;;;;;;;0.50;0.30;;;;;;;10.86;65.99;95066.81;5032327;28;20056;-90
2023/01/15 08:16:10;;;;;;;0.28;0.20;;;;;;;10.75;66.77;95068.44;5009535;28;20063;-89
2023/01/15 08:18:36;;;;;;;0.28;0.20;;;;;;;10.80;65.82;95065.47;5029530;28;20459;-90
2023/01/15 08:21:03;;;;;;;0.38;0.17;;;;;;;10.87;65.23;95065.66;5030585;28;20050;-90
2023/01/15 08:23:29;;;;;;;0.10;0.10;;;;;;;10.87;65.56;95076.56;5033754;28;20453;-88
2023/01/15 08:25:59;;;;;;;0.82;0.10;;;;;;;10.93;64.61;95064.25;5033629;28;20418;-86
2023/01/15 08:28:25;;;;;;;0.85;0.20;;;;;;;10.89;65.16;95053.25;5030862;28;20061;-88
2023/01/15 08:30:52;;;;;;;0.20;0.20;;;;;;;10.87;65.08;95061.00;5032647;28;20055;-88
2023/01/15 08:33:19;;;;;;;0.35;0.20;;;;;;;10.89;64.59;95060.66;5025383;28;20045;-85
2023/01/15 08:35:46;;;;;;;0.80;0.20;;;;;;;10.92;64.25;95062.69;5032202;28;20053;-86
2023/01/15 08:38:12;;;;;;;0.20;0.20;;;;;;;11.09;63.58;95067.75;5031465;28;20045;-88
2023/01/15 08:40:57;;;;;;;0.30;0.20;;;;;;;11.05;64.03;95055.19;5032229;28;20049;-85
2023/01/15 08:43:24;;;;;;;0.75;0.30;;;;;;;10.92;65.26;95058.03;5031316;28;20065;-89
2023/01/15 08:45:51;;;;;;;0.20;0.20;;;;;;;10.93;64.84;95058.81;5033022;28;20045;-85
2023/01/15 08:48:18;;;;;;;0.68;0.40;;;;;;;10.80;65.37;95054.56;5027092;28;20053;-89
2023/01/15 08:50:46;;;;;;;0.95;0.40;;;;;;;10.71;66.14;95052.81;5034136;28;20513;-86
2023/01/15 08:53:12;;;;;;;0.65;0.50;;;;;;;10.80;66.54;95054.56;5035354;28;20054;-84
2023/01/15 08:55:39;;;;;;;0.47;0.30;;;;;;;10.77;66.18;95055.28;5034167;28;20759;-89
2023/01/15 08:58:06;;;;;;;0.50;0.38;;;;;;;10.62;66.76;95054.91;5032860;28;20141;-88
2023/01/15 09:00:33;;;;;;;0.30;0.22;;;;;;;10.39;67.91;95059.38;5033052;28;20050;-90
2023/01/15 09:02:59;;;;;;;0.98;0.22;;;;;;;10.37;67.92;95042.59;5032601;28;20049;-85
2023/01/15 09:05:27;;;;;;;0.93;0.43;;;;;;;10.30;68.65;95043.19;5033440;28;20057;-88
2023/01/15 09:07:55;;;;;;;1.17;0.40;;;;;;;10.35;67.98;95014.94;5033104;28;20756;-89
2023/01/15 09:10:24;;;;;;;0.70;0.40;;;;;;;10.51;66.56;95015.75;5034112;28;20095;-89
2023/01/15 09:12:50;;;;;;;0.32;0.30;;;;;;;10.67;65.57;95005.66;5026009;28;20430;-92
2023/01/15 09:15:17;;;;;;;0.20;0.20;;;;;;;10.81;64.66;95007.94;5028053;28;20053;-86
2023/01/15 09:17:43;;;;;;;0.30;0.30;;;;;;;10.90;64.50;94999.59;5022173;28;20454;-81
2023/01/15 09:20:12;;;;;;;0.57;0.30;;;;;;;10.86;65.18;94994.06;5032668;28;20064;-83
2023/01/15 09:22:38;;;;;;;0.85;0.30;;;;;;;10.99;64.54;95000.19;5037050;28;20056;-82
2023/01/15 09:25:07;;;;;;;0.40;0.28;;;;;;;10.94;64.97;95005.91;5026244;28;20434;-83
2023/01/15 09:27:34;;;;;;;0.35;0.28;;;;;;;11.06;64.60;94994.13;5032593;28;20053;-84
2023/01/15 09:30:00;;;;;;;0.68;0.40;;;;;;;11.05;64.25;94996.06;5033673;28;20061;-80
2023/01/15 09:32:27;;;;;;;1.10;0.43;;;;;;;11.10;64.36;94993.06;5032930;28;20049;-81
2023/01/15 09:34:53;;;;;;;0.60;0.30;;;;;;;11.29;63.15;94984.16;5034577;28;20045;-82
2023/01/15 09:37:20;;;;;;;0.30;0.30;;;;;;;11.44;61.95;94990.72;5026862;28;20053;-81
2023/01/15 09:39:46;;;;;;;0.40;0.30;;;;;;;11.54;61.76;94984.69;5033893;28;20057;-86
2023/01/15 09:42:29;;;;;;;0.68;0.30;;;;;;;11.61;61.16;94987.56;5027763;28;20073;-82
2023/01/15 09:45:12;;;;;;;0.50;0.25;;;;;;;11.68;61.01;94982.25;5030099;28;20514;-85
2023/01/15 09:47:43;;;;;;;1.15;0.40;;;;;;;11.72;60.85;94980.41;5021917;28;20049;-84
2023/01/15 09:50:24;;;;;;;0.52;0.38;;;;;;;11.80;60.22;94975.88;5029370;28;20623;-83
2023/01/15 09:53:15;;;;;;;0.30;0.30;;;;;;;11.85;59.10;94967.44;5029801;28;20552;-80
2023/01/15 09:55:46;;;;;;;1.10;0.25;;;;;;;11.89;58.76;94972.97;5016799;28;20680;-82
2023/01/15 09:58:16;;;;;;;0.40;0.40;;;;;;;11.93;57.75;94973.81;5027870;28;20050;-83
2023/01/15 10:00:45;;;;;;;0.30;0.30;;;;;;;11.98;58.22;94981.72;5022701;28;20060;-82
2023/01/15 10:03:25;;;;;;;0.55;0.30;;;;;;;11.96;58.44;94994.94;5024300;28;20501;-81
2023/01/15 10:05:58;;;;;;;0.45;0.22;;;;;;;11.97;58.00;94996.50;5029414;28;20053;-82
2023/01/15 10:08:30;;;;;;;0.77;0.30;;;;;;;11.91;58.53;95009.66;5028806;28;20045;-85
2023/01/15 10:11:02;;;;;;;0.73;0.38;;;;;;;11.62;60.63;95008.22;5028622;28;20072;-81
2023/01/15 10:13:39;;;;;;;2.15;0.22;;;;;;;10.76;69.18;95042.81;5027720;28;20063;-88
2023/01/15 10:16:06;;;;;;;1.02;0.22;;;;;;;9.80;73.73;95038.25;5030623;28;20061;-87
2023/01/15 10:18:32;;;;;;;0.20;0.17;;;;;;;9.01;77.28;95073.13;5030667;28;20052;-87
2023/01/15 10:21:18;;;;;;;0.93;0.10;;;;;;;8.46;80.13;95088.75;5029576;28;20746;-87
2023/01/15 10:23:56;;;;;;;0.52;0.30;;;;;;;8.07;80.95;95098.97;5029376;28;20053;-89
2023/01/15 10:26:32;;;;;;;1.75;0.20;;;;;;;7.72;82.86;95112.00;5034932;28;20056;-89
2023/01/15 10:29:03;;;;;;;1.58;0.20;;;;;;;7.61;84.67;95120.84;5037240;28;20433;-89
2023/01/15 10:31:48;;;;;;;0.20;0.20;;;;;;;7.48;84.09;95139.72;5027733;28;20308;-82
2023/01/15 10:34:32;;;;;;;0.20;0.20;;;;;;;7.39;84.71;95159.84;5035590;28;20046;-87
2023/01/15 10:37:07;;;;;;;0.30;0.30;;;;;;;7.19;85.27;95191.94;5034502;28;20061;-91
2023/01/15 10:39:45;;;;;;;0.50;0.30;;;;;;;7.02;85.94;95183.91;5025359;28;20038;-87
2023/01/15 10:42:26;;;;;;;0.20;0.20;;;;;;;7.01;87.19;95199.34;5025487;28;20434;-89
2023/01/15 10:45:03;;;;;;;0.22;0.20;;;;;;;6.88;86.70;95199.53;5033139;28;20273;-90
2023/01/15 10:47:33;;;;;;;0.32;0.20;;;;;;;6.76;87.46;95219.13;5023329;28;20049;-84
2023/01/15 10:50:02;;;;;;;0.30;0.20;;;;;;;6.57;87.40;95215.97;5029644;28;20045;-83
2023/01/15 10:52:33;;;;;;;0.38;0.10;;;;;;;6.45;88.43;95249.88;5029285;28;20049;-85
2023/01/15 10:55:06;;;;;;;0.25;0.22;;;;;;;6.39;87.85;95226.03;5032720;28;20057;-84
2023/01/15 10:57:42;;;;;;;0.68;0.20;;;;;;;6.40;87.46;95250.03;5023833;28;20053;-86
2023/01/15 11:00:12;;;;;;;0.43;0.43;;;;;;;6.37;87.10;95256.09;5030394;28;20418;-86
2023/01/15 11:02:42;;;;;;;0.63;0.32;;;;;;;6.30;86.96;95234.13;5031041;28;20052;-80
2023/01/15 11:05:14;;;;;;;0.30;0.30;;;;;;;6.28;84.87;95225.53;5031505;28;20485;-82
2023/01/15 11:07:43;;;;;;;0.40;0.20;;;;;;;6.18;84.86;95236.66;5020289;28;20050;-85
2023/01/15 11:10:14;;;;;;;3.63;0.20;;;;;;;6.06;84.53;95233.81;5029066;28;20060;-83
2023/01/15 11:21:12;;;;;;;2.10;0.88;;;;;;;5.98;86.06;95260.47;5028986;28;20119;-80
2023/01/15 11:23:39;;;;;;;1.00;0.60;;;;;;;5.81;85.91;95254.22;5025479;28;20073;-85
2023/01/15 11:26:06;;;;;;;0.30;0.20;;;;;;;5.73;86.34;95248.47;5029275;28;20046;-84
2023/01/15 11:28:35;;;;;;;0.20;0.20;;;;;;;5.68;86.52;95247.81;5029584;28;20544;-83
2023/01/15 11:31:03;;;;;;;0.50;0.30;;;;;;;5.52;87.37;95260.16;5030138;28;20118;-85
2023/01/15 11:33:30;;;;;;;1.02;0.40;;;;;;;5.41;87.43;95268.53;5021461;28;20046;-80
2023/01/15 11:36:00;;;;;;;2.10;1.50;;;;;;;5.38;87.15;95263.78;5023909;28;20140;-87
2023/01/15 11:38:28;;;;;;;0.47;0.43;;;;;;;5.43;86.99;95268.25;5022879;28;20050;-82
2023/01/15 11:40:58;;;;;;;1.33;0.40;;;;;;;5.43;87.72;95276.34;5031495;28;20060;-84
2023/01/15 11:51:58;;;;;;;0.17;0.10;;;;;;;5.34;81.69;95273.59;5030358;28;20068;-86
2023/01/15 11:54:26;;;;;;;1.10;0.10;;;;;;;5.13;83.84;95294.13;5021993;28;20569;-79
2023/01/15 11:56:52;;;;;;;0.47;0.20;;;;;;;5.07;86.95;95306.16;5027613;28;20050;-83
2023/01/15 11:59:19;;;;;;;0.32;0.10;;;;;;;4.86;87.88;95305.88;5030182;28;20054;-80
2023/01/15 12:01:53;;;;;;;1.25;0.25;;;;;;;4.75;87.85;95310.72;5022952;28;20042;-80
2023/01/15 12:04:29;;;;;;;0.50;0.30;;;;;;;4.66;89.68;95326.00;5026123;28;20510;-82
2023/01/15 12:06:55;;;;;;;0.30;0.30;;;;;;;4.64;89.78;95330.91;5033839;28;20064;-79
2023/01/15 12:09:34;;;;;;;0.10;0.10;;;;;;;4.61;90.92;95351.19;5032716;28;20053;-82
2023/01/15 12:12:09;;;;;;;0.20;0.20;;;;;;;4.65;91.70;95376.47;5032823;28;20046;-80
2023/01/15 12:15:09;;;;;;;0.10;0.10;;;;;;;4.64;91.19;95374.03;5035864;28;20045;-79
2023/01/15 12:17:56;;;;;;;0.10;0.10;;;;;;;4.67;88.78;95373.44;5013598;28;20049;-82
2023/01/15 12:20:29;;;;;;;1.27;0.20;;;;;;;4.74;88.00;95384.59;5037184;28;20425;-88
2023/01/15 12:23:26;;;;;;;0.65;0.32;;;;;;;4.65;88.39;95397.22;5046295;28;20056;-83
2023/01/15 12:26:02;;;;;;;0.35;0.20;;;;;;;4.68;89.42;95393.91;5050009;28;20057;-84
2023/01/15 12:28:33;;;;;;;0.20;0.20;;;;;;;4.66;90.06;95404.22;5041927;28;20044;-86
2023/01/15 12:31:04;;;;;;;0.50;0.30;;;;;;;4.66;89.31;95426.59;5046104;28;20053;-82
2023/01/15 12:33:45;;;;;;;0.47;0.30;;;;;;;4.60;89.44;95425.09;5030719;28;20061;-80